Portada
METAR-TAF:

METAR-TAF

Aeropuertos :

Al Qamishli, Siria

latitud: 37-03N, longitud: 041-13E, altitud: 455 m

Observación

El informe se hizo hace 1 hora y 8 minutos, a las 00:00 UTC
Viento 8 kt del norte-noroeste
Temperatura 13°C
Humedad 77%
Presión 1017 hPa
Visibilidad 10 km o más
sin nubes por debajo de 1500 m y sin presencia de cumulonimbus.

METAR: OSKL 260000Z 33008KT CAVOK 13/09 Q1017

Hora: 04:08 (01:08 UTC)


TAF: falta

Observaciones y pronósticos meteorológicos de más de 4000 aeropuertos (mensajes METAR y TAF).

Los puntos amarillos y rojos representan las estaciones disponibles.

Ponga el ratón en el punto deseado para ver el nombre de la estación.

Haga clic para ver las observaciones y los pronósticos meteorológicos.

Para cambiar el mapa : haga clic en los botones verdes con una cruz de color negro para hacer un zoom, en el botón verde con un guión para alejar o en las flechas verdes para mapas adyacentes.


METAR-TAF: